Time;durP1;ratioP1;P1;durP2;ratioP2;P2;SDS_P1;SDS_P2;PMS_P1;PMS_P2;Temp;Humidity;BMP_temperature;BMP_pressure;BME280_temperature;BME280_humidity;BME280_pressure;Samples;Min_cycle;Max_cycle;Signal;HPM_P1;HPM_P2
2022/12/19 00:00:40;;;;;;;0.10;0.10;;;;;;;14.14;76.36;98690.88;7359494;19;20040;-58
2022/12/19 00:03:05;;;;;;;0.10;0.10;;;;;;;14.21;76.09;98681.59;7357875;19;20961;-58
2022/12/19 00:05:34;;;;;;;0.10;0.10;;;;;;;14.22;76.34;98682.44;7356615;19;20102;-57
2022/12/19 00:08:00;;;;;;;0.10;0.10;;;;;;;14.12;76.23;98661.25;7362789;19;20694;-56
2022/12/19 00:10:25;;;;;;;0.10;0.10;;;;;;;14.27;76.42;98691.66;7360546;19;20006;-58
2022/12/19 00:12:50;;;;;;;0.10;0.10;;;;;;;14.31;75.83;98680.97;7358362;19;20077;-57
2022/12/19 00:15:16;;;;;;;0.10;0.10;;;;;;;14.33;75.94;98673.81;7356099;19;20010;-58
2022/12/19 00:17:41;;;;;;;0.03;0.03;;;;;;;14.35;76.29;98674.56;7360117;19;25513;-58
2022/12/19 00:20:07;;;;;;;0.10;0.10;;;;;;;14.35;76.12;98658.81;7358553;19;20014;-57
2022/12/19 00:22:33;;;;;;;0.08;0.08;;;;;;;14.38;75.98;98663.81;7361123;19;20017;-58
2022/12/19 00:24:58;;;;;;;0.10;0.10;;;;;;;14.41;76.13;98650.50;7356383;19;20609;-57
2022/12/19 00:27:23;;;;;;;0.10;0.10;;;;;;;14.43;76.08;98651.19;7361228;19;20095;-58
2022/12/19 00:29:49;;;;;;;0.00;0.00;;;;;;;14.44;76.02;98655.50;7357874;19;20023;-58
2022/12/19 00:32:14;;;;;;;0.10;0.10;;;;;;;14.44;75.71;98647.63;7357739;19;20017;-58
2022/12/19 00:34:39;;;;;;;0.10;0.10;;;;;;;14.45;76.11;98641.44;7355768;19;20035;-57
2022/12/19 00:37:05;;;;;;;0.10;0.10;;;;;;;14.47;75.69;98634.28;7362458;19;20014;-57
2022/12/19 00:39:30;;;;;;;0.08;0.08;;;;;;;14.48;76.09;98633.38;7357397;19;20014;-58
2022/12/19 00:41:56;;;;;;;0.10;0.10;;;;;;;14.50;75.79;98631.47;7361982;19;20014;-58
2022/12/19 00:44:21;;;;;;;0.00;0.00;;;;;;;14.51;75.61;98641.88;7356236;19;20454;-57
2022/12/19 00:46:46;;;;;;;0.10;0.10;;;;;;;14.54;75.95;98641.63;7358373;19;20038;-58
2022/12/19 00:49:12;;;;;;;0.10;0.10;;;;;;;14.55;75.71;98632.00;7358439;19;20038;-58
2022/12/19 00:51:37;;;;;;;0.10;0.10;;;;;;;14.57;75.74;98624.00;7358172;19;20112;-57
2022/12/19 00:54:03;;;;;;;0.10;0.10;;;;;;;14.62;75.96;98630.59;7356753;19;20033;-58
2022/12/19 00:56:31;;;;;;;0.10;0.10;;;;;;;14.52;75.69;98603.31;7358170;19;20086;-58
2022/12/19 00:58:56;;;;;;;0.10;0.10;;;;;;;14.63;75.82;98603.38;7358251;19;20018;-57
2022/12/19 01:01:32;;;;;;;0.08;0.08;;;;;;;14.72;76.00;98607.94;7360158;19;20041;-59
2022/12/19 01:03:59;;;;;;;0.00;0.00;;;;;;;14.74;75.57;98594.69;7357139;19;20123;-58
2022/12/19 01:06:25;;;;;;;0.10;0.10;;;;;;;14.76;75.61;98596.28;7358769;19;20026;-55
2022/12/19 01:08:51;;;;;;;0.10;0.10;;;;;;;14.81;75.67;98601.19;7359463;19;20006;-58
2022/12/19 01:11:16;;;;;;;0.10;0.10;;;;;;;14.82;75.35;98602.88;7358175;19;20037;-57
2022/12/19 01:13:42;;;;;;;0.10;0.10;;;;;;;14.75;75.33;98591.97;7355987;19;20014;-59
2022/12/19 01:16:12;;;;;;;0.10;0.10;;;;;;;14.89;75.20;98619.00;7357112;19;20018;-58
2022/12/19 01:18:38;;;;;;;0.10;0.10;;;;;;;14.83;75.44;98607.16;7358557;19;20026;-57
2022/12/19 01:21:07;;;;;;;0.10;0.10;;;;;;;14.91;75.23;98596.94;7359460;19;20011;-58
2022/12/19 01:23:34;;;;;;;0.10;0.10;;;;;;;14.90;75.36;98595.25;7359512;19;20031;-58
2022/12/19 01:25:59;;;;;;;0.00;0.00;;;;;;;14.93;75.33;98581.88;7358472;19;20134;-58
2022/12/19 01:28:25;;;;;;;0.00;0.00;;;;;;;14.93;75.38;98573.16;7357023;19;20015;-58
2022/12/19 01:30:51;;;;;;;0.10;0.10;;;;;;;14.93;75.32;98581.03;7356275;19;20050;-56
2022/12/19 01:33:19;;;;;;;0.00;0.00;;;;;;;14.96;74.97;98588.72;7357978;19;20469;-56
2022/12/19 01:35:46;;;;;;;0.10;0.10;;;;;;;14.97;75.20;98598.28;7357835;19;20007;-58
2022/12/19 01:38:16;;;;;;;0.10;0.10;;;;;;;14.96;75.45;98591.34;7357698;19;20018;-58
2022/12/19 01:40:50;;;;;;;0.10;0.10;;;;;;;14.95;75.15;98579.13;7355542;19;20017;-58
2022/12/19 01:43:16;;;;;;;0.10;0.10;;;;;;;14.90;75.13;98590.00;7359237;19;20023;-56
2022/12/19 01:45:42;;;;;;;0.10;0.10;;;;;;;14.91;75.31;98601.34;7356191;19;20034;-56
2022/12/19 01:48:37;;;;;;;0.00;0.00;;;;;;;14.93;74.91;98602.06;7357000;19;20594;-58
2022/12/19 01:51:17;;;;;;;0.00;0.00;;;;;;;14.91;75.15;98594.31;7253286;19;2004241;-58
2022/12/19 01:53:49;;;;;;;0.00;0.00;;;;;;;14.92;75.02;98595.16;7358624;19;20041;-58
2022/12/19 01:56:16;;;;;;;0.10;0.10;;;;;;;14.90;75.50;98594.41;7356967;19;21017;-58
2022/12/19 01:58:46;;;;;;;0.10;0.10;;;;;;;14.90;75.36;98589.16;7358174;19;20010;-58
2022/12/19 02:01:14;;;;;;;0.10;0.10;;;;;;;14.91;75.25;98588.22;7356869;19;20026;-56
2022/12/19 02:03:40;;;;;;;0.00;0.00;;;;;;;14.90;74.99;98589.16;7357883;19;20014;-58
2022/12/19 02:06:07;;;;;;;0.00;0.00;;;;;;;14.87;75.39;98574.47;7353474;19;20047;-56
2022/12/19 02:08:34;;;;;;;0.10;0.10;;;;;;;14.82;74.97;98581.84;7358328;19;20014;-57
2022/12/19 02:10:59;;;;;;;0.10;0.10;;;;;;;14.86;75.26;98587.72;7355334;19;20099;-58
2022/12/19 02:13:25;;;;;;;0.00;0.00;;;;;;;14.85;75.19;98580.75;7357663;19;20014;-58
2022/12/19 02:16:27;;;;;;;0.10;0.10;;;;;;;14.91;75.11;98581.16;7356578;19;20014;-57
2022/12/19 02:19:01;;;;;;;0.10;0.10;;;;;;;14.87;74.92;98578.88;7261341;19;2004181;-58
2022/12/19 02:22:07;;;;;;;0.10;0.10;;;;;;;14.91;75.21;98588.22;7361077;19;20086;-58
2022/12/19 02:24:58;;;;;;;0.00;0.00;;;;;;;14.90;75.07;98573.38;7255436;19;2004270;-58
2022/12/19 02:27:44;;;;;;;0.10;0.10;;;;;;;14.85;75.25;98565.00;7362941;19;20042;-57
2022/12/19 02:30:13;;;;;;;0.08;0.08;;;;;;;14.88;75.38;98585.81;7361598;19;20017;-57
2022/12/19 02:33:02;;;;;;;0.00;0.00;;;;;;;14.91;75.09;98586.44;7361724;19;20057;-58
2022/12/19 02:35:44;;;;;;;0.05;0.05;;;;;;;14.93;75.51;98599.44;7362183;19;20073;-56
2022/12/19 02:38:21;;;;;;;0.10;0.10;;;;;;;14.94;75.51;98564.31;7362372;19;20025;-57
2022/12/19 02:41:16;;;;;;;0.08;0.08;;;;;;;15.00;75.01;98563.84;7361165;19;20027;-56
2022/12/19 02:43:45;;;;;;;0.10;0.10;;;;;;;14.85;75.29;98543.97;7259940;19;2004298;-58
2022/12/19 02:46:12;;;;;;;0.00;0.00;;;;;;;14.98;75.36;98565.78;7364012;19;20082;-58
2022/12/19 02:48:39;;;;;;;0.10;0.10;;;;;;;14.97;75.22;98553.59;7362792;19;20017;-57
2022/12/19 02:51:04;;;;;;;0.10;0.10;;;;;;;15.01;74.85;98576.06;7362942;19;20014;-58
2022/12/19 02:53:30;;;;;;;0.10;0.10;;;;;;;15.02;75.24;98554.09;7361399;19;20356;-57
2022/12/19 02:56:29;;;;;;;0.00;0.00;;;;;;;15.06;74.89;98537.13;7362494;19;20038;-57
2022/12/19 02:59:42;;;;;;;0.10;0.10;;;;;;;15.07;75.17;98559.81;7253560;19;2004387;-58
2022/12/19 03:02:28;;;;;;;0.10;0.10;;;;;;;15.07;74.70;98565.09;7259755;19;2004545;-57
2022/12/19 03:05:04;;;;;;;0.10;0.10;;;;;;;15.08;75.22;98544.88;7360122;19;20010;-58
2022/12/19 03:07:39;;;;;;;0.10;0.10;;;;;;;15.06;75.03;98547.66;7364264;19;20018;-57
2022/12/19 03:10:30;;;;;;;0.08;0.08;;;;;;;15.02;75.29;98533.88;7362630;19;20349;-57
2022/12/19 03:13:01;;;;;;;0.10;0.10;;;;;;;15.04;75.02;98539.84;7259524;19;2004298;-57
2022/12/19 03:15:27;;;;;;;0.10;0.10;;;;;;;14.91;75.38;98517.25;7363926;19;20010;-57
2022/12/19 03:17:58;;;;;;;0.10;0.10;;;;;;;15.06;75.09;98531.88;7364915;19;20177;-57
2022/12/19 03:20:42;;;;;;;0.00;0.00;;;;;;;15.09;74.93;98526.38;7365386;19;20018;-57
2022/12/19 03:23:08;;;;;;;0.00;0.00;;;;;;;15.05;75.48;98531.03;7358355;19;20006;-55
2022/12/19 03:25:34;;;;;;;0.00;0.00;;;;;;;15.07;75.39;98533.53;7364133;19;21829;-58
2022/12/19 03:28:03;;;;;;;0.10;0.10;;;;;;;15.09;75.64;98544.75;7360736;19;20045;-57
2022/12/19 03:30:32;;;;;;;0.00;0.00;;;;;;;15.14;75.56;98555.78;7362410;19;20010;-58
2022/12/19 03:32:59;;;;;;;0.10;0.10;;;;;;;15.15;75.25;98536.41;7360783;19;20446;-57
2022/12/19 03:35:28;;;;;;;0.00;0.00;;;;;;;15.21;75.82;98532.50;7363120;19;20900;-57
2022/12/19 03:37:59;;;;;;;0.10;0.10;;;;;;;15.23;75.58;98534.03;7360937;19;20017;-57
2022/12/19 03:40:27;;;;;;;0.10;0.10;;;;;;;15.26;75.16;98527.72;7361229;19;20811;-58
2022/12/19 03:43:08;;;;;;;;;;;;;;;15.32;75.16;98520.19;7359215;19;20018;-57
2022/12/19 03:46:01;;;;;;;0.10;0.10;;;;;;;15.33;74.92;98518.41;7364755;19;20296;-58
2022/12/19 03:48:26;;;;;;;0.10;0.10;;;;;;;15.30;75.07;98524.72;7256486;19;2005216;-57
2022/12/19 03:51:14;;;;;;;0.10;0.10;;;;;;;15.36;75.02;98522.56;7364519;19;20407;-57
2022/12/19 03:54:07;;;;;;;0.10;0.10;;;;;;;15.37;74.81;98534.78;7357413;19;20014;-58
2022/12/19 03:56:55;;;;;;;0.10;0.10;;;;;;;15.38;74.71;98518.06;7261569;19;2004419;-58
2022/12/19 03:59:45;;;;;;;0.10;0.10;;;;;;;15.36;74.77;98515.53;7258777;19;2005039;-57
2022/12/19 04:02:12;;;;;;;0.10;0.10;;;;;;;15.37;74.93;98519.00;7363479;19;20011;-57
2022/12/19 04:04:42;;;;;;;0.00;0.00;;;;;;;15.40;74.73;98524.03;7343859;19;20129;-58
2022/12/19 04:07:09;;;;;;;0.00;0.00;;;;;;;15.38;74.87;98529.41;7361275;19;20010;-57
2022/12/19 04:09:38;;;;;;;0.10;0.10;;;;;;;15.41;75.17;98518.66;7357580;19;20148;-57
2022/12/19 04:12:09;;;;;;;0.03;0.03;;;;;;;15.41;75.07;98531.81;7363347;19;20510;-57
2022/12/19 04:14:37;;;;;;;0.08;0.08;;;;;;;15.43;75.05;98508.84;7361118;19;20013;-57
2022/12/19 04:17:05;;;;;;;0.10;0.10;;;;;;;15.46;75.03;98523.53;7362541;19;20017;-58
2022/12/19 04:19:39;;;;;;;0.10;0.10;;;;;;;15.42;74.90;98517.69;7344848;19;20454;-58
2022/12/19 04:22:15;;;;;;;0.08;0.08;;;;;;;15.49;74.54;98524.16;7362390;19;20019;-57
2022/12/19 04:24:43;;;;;;;0.00;0.00;;;;;;;15.50;74.46;98535.50;7355017;19;20670;-57
2022/12/19 04:27:11;;;;;;;0.10;0.10;;;;;;;15.51;74.74;98516.13;7362546;19;20002;-57
2022/12/19 04:29:38;;;;;;;0.10;0.10;;;;;;;15.55;74.22;98514.94;7363656;19;20010;-57
2022/12/19 04:32:05;;;;;;;0.10;0.10;;;;;;;15.45;74.35;98490.31;7359058;19;20020;-58
2022/12/19 04:34:31;;;;;;;0.10;0.10;;;;;;;15.49;74.12;98510.16;7362553;19;20010;-57
2022/12/19 04:36:57;;;;;;;0.10;0.10;;;;;;;15.41;74.28;98495.00;7362717;19;20022;-57
2022/12/19 04:39:22;;;;;;;0.00;0.00;;;;;;;15.51;74.07;98500.34;7361017;19;20007;-57
2022/12/19 04:41:48;;;;;;;0.10;0.10;;;;;;;15.60;73.96;98512.78;7357586;19;20026;-57
2022/12/19 04:44:13;;;;;;;0.10;0.10;;;;;;;15.60;74.15;98511.94;7358542;19;19998;-58
2022/12/19 04:46:39;;;;;;;0.00;0.00;;;;;;;15.59;74.22;98505.84;7359456;19;20740;-58
2022/12/19 04:49:04;;;;;;;0.10;0.10;;;;;;;15.60;74.00;98518.03;7362366;19;20031;-57
2022/12/19 04:51:29;;;;;;;0.00;0.00;;;;;;;15.62;73.82;98508.25;7361841;19;20085;-58
2022/12/19 04:53:55;;;;;;;0.10;0.10;;;;;;;15.62;74.16;98503.00;7361683;19;20007;-56
2022/12/19 04:56:21;;;;;;;0.10;0.10;;;;;;;15.62;73.99;98502.16;7356061;19;20030;-57
2022/12/19 04:58:46;;;;;;;0.10;0.10;;;;;;;15.65;74.12;98499.31;7362288;19;20676;-57
2022/12/19 05:01:13;;;;;;;0.10;0.10;;;;;;;15.65;73.78;98500.13;7360083;19;20010;-57
2022/12/19 05:03:38;;;;;;;0.10;0.10;;;;;;;15.61;73.80;98493.41;7362350;19;20010;-58
2022/12/19 05:06:07;;;;;;;0.10;0.10;;;;;;;15.68;73.47;98485.91;7360535;19;20359;-57
2022/12/19 05:08:34;;;;;;;0.10;0.10;;;;;;;15.71;73.60;98491.78;7361261;19;20031;-57
2022/12/19 05:11:01;;;;;;;0.10;0.10;;;;;;;15.72;73.62;98482.94;7362496;19;20017;-57
2022/12/19 05:13:27;;;;;;;0.10;0.10;;;;;;;15.61;73.71;98464.47;7360289;19;20015;-57
2022/12/19 05:16:01;;;;;;;0.10;0.10;;;;;;;15.78;73.67;98482.44;7362066;19;20029;-57
2022/12/19 05:18:27;;;;;;;0.00;0.00;;;;;;;15.77;73.19;98486.03;7360047;19;20660;-57
2022/12/19 05:20:52;;;;;;;0.10;0.10;;;;;;;15.76;73.08;98473.84;7360708;19;20037;-58
2022/12/19 05:23:18;;;;;;;0.10;0.10;;;;;;;15.75;73.34;98477.41;7358947;19;20007;-58
2022/12/19 05:25:43;;;;;;;0.00;0.00;;;;;;;15.83;73.46;98475.00;7358529;19;20462;-57
2022/12/19 05:28:09;;;;;;;0.10;0.10;;;;;;;15.84;72.75;98460.06;7357992;19;21159;-57
2022/12/19 05:30:34;;;;;;;0.10;0.10;;;;;;;15.86;72.59;98459.91;7361280;19;20019;-57
2022/12/19 05:33:00;;;;;;;0.10;0.10;;;;;;;15.83;72.47;98464.47;7355035;19;20568;-57
2022/12/19 05:35:26;;;;;;;0.10;0.10;;;;;;;15.73;72.71;98442.50;7360673;19;20018;-58
2022/12/19 05:37:51;;;;;;;0.10;0.10;;;;;;;15.81;72.61;98461.16;7356302;19;20014;-57
2022/12/19 05:40:17;;;;;;;0.10;0.10;;;;;;;15.77;72.19;98459.72;7361856;19;20115;-57
2022/12/19 05:42:42;;;;;;;0.05;0.05;;;;;;;15.72;72.55;98464.50;7357521;19;20082;-58
2022/12/19 05:45:08;;;;;;;0.10;0.10;;;;;;;15.71;72.71;98454.94;7362093;19;20010;-58
2022/12/19 05:47:33;;;;;;;0.10;0.10;;;;;;;15.70;72.46;98474.31;7358888;19;20029;-57
2022/12/19 05:49:59;;;;;;;0.10;0.10;;;;;;;15.65;72.41;98471.19;7361155;19;20017;-57
2022/12/19 05:52:24;;;;;;;0.10;0.10;;;;;;;15.62;72.84;98466.16;7362597;19;20006;-57
2022/12/19 05:54:49;;;;;;;0.10;0.10;;;;;;;15.61;72.63;98461.84;7366055;19;20516;-57
2022/12/19 05:57:15;;;;;;;0.10;0.10;;;;;;;15.58;72.82;98475.25;7366846;19;20007;-58
2022/12/19 05:59:41;;;;;;;0.10;0.10;;;;;;;15.56;72.92;98467.50;7364111;19;20039;-57
2022/12/19 06:02:06;;;;;;;0.10;0.10;;;;;;;15.49;72.65;98444.41;7366148;19;20468;-57
2022/12/19 06:04:32;;;;;;;0.00;0.00;;;;;;;15.52;72.65;98462.59;7365075;19;20538;-57
2022/12/19 06:06:57;;;;;;;0.10;0.10;;;;;;;15.49;72.65;98460.19;7367259;19;20015;-56
2022/12/19 06:09:23;;;;;;;0.03;0.03;;;;;;;15.47;73.01;98462.94;7366700;19;20019;-57
2022/12/19 06:11:48;;;;;;;0.10;0.10;;;;;;;15.44;72.59;98449.19;7363096;19;20336;-57
2022/12/19 06:14:14;;;;;;;0.10;0.10;;;;;;;15.43;73.22;98460.66;7363755;19;20077;-57
2022/12/19 06:16:39;;;;;;;0.10;0.10;;;;;;;15.39;73.41;98433.78;7365721;19;20014;-57
2022/12/19 06:19:04;;;;;;;0.10;0.10;;;;;;;15.39;72.84;98448.72;7365646;19;20458;-58
2022/12/19 06:21:30;;;;;;;0.10;0.10;;;;;;;15.37;73.34;98429.59;7365888;19;20056;-56
2022/12/19 06:23:55;;;;;;;0.10;0.10;;;;;;;15.30;73.78;98430.06;7364381;19;20002;-58
2022/12/19 06:26:21;;;;;;;0.10;0.10;;;;;;;15.22;73.04;98427.22;7365228;19;20014;-57
2022/12/19 06:28:48;;;;;;;0.10;0.10;;;;;;;15.34;73.26;98420.13;7364683;19;20693;-57
2022/12/19 06:31:14;;;;;;;0.10;0.10;;;;;;;15.31;73.16;98415.97;7366211;19;20015;-57
2022/12/19 06:33:40;;;;;;;0.10;0.10;;;;;;;15.17;73.19;98397.81;7364742;19;20010;-57
2022/12/19 06:36:27;;;;;;;0.00;0.00;;;;;;;15.31;73.43;98431.75;7363996;19;22280;-57
2022/12/19 06:38:54;;;;;;;0.10;0.10;;;;;;;15.31;73.17;98421.25;7264045;19;2004410;-57
2022/12/19 06:44:06;;;;;;;0.10;0.10;;;;;;;15.31;74.00;98415.16;7365153;19;20338;-58
2022/12/19 06:46:32;;;;;;;0.10;0.10;;;;;;;15.22;73.61;98397.44;7362592;19;20010;-57
2022/12/19 06:48:57;;;;;;;0.00;0.00;;;;;;;15.29;73.61;98417.03;7367647;19;20006;-57
2022/12/19 06:51:23;;;;;;;0.10;0.10;;;;;;;15.30;73.14;98422.16;7363997;19;20111;-57
2022/12/19 06:53:49;;;;;;;0.10;0.10;;;;;;;15.20;73.41;98396.72;7365991;19;20006;-56
2022/12/19 06:56:16;;;;;;;0.10;0.10;;;;;;;15.29;73.37;98417.88;7364169;19;20018;-57
2022/12/19 06:58:42;;;;;;;0.00;0.00;;;;;;;15.29;73.77;98412.63;7355591;19;20098;-57
2022/12/19 07:01:18;;;;;;;0.10;0.10;;;;;;;15.32;73.27;98407.13;7365088;19;20086;-57
2022/12/19 07:03:46;;;;;;;0.10;0.10;;;;;;;15.29;73.72;98407.34;7362371;19;20641;-57
2022/12/19 07:06:11;;;;;;;0.10;0.10;;;;;;;15.23;73.69;98386.81;7363135;19;20097;-57
2022/12/19 07:08:37;;;;;;;0.10;0.10;;;;;;;15.28;73.68;98396.97;7365029;19;20394;-56
2022/12/19 07:11:02;;;;;;;0.10;0.10;;;;;;;15.17;73.50;98368.06;7364732;19;20027;-55
2022/12/19 07:13:28;;;;;;;0.00;0.00;;;;;;;15.27;73.32;98388.25;7360675;19;20007;-57
2022/12/19 07:16:00;;;;;;;0.10;0.10;;;;;;;15.29;73.61;98385.47;7358839;19;20063;-57
2022/12/19 07:18:27;;;;;;;0.08;0.08;;;;;;;15.28;73.96;98376.75;7362963;19;20018;-57
2022/12/19 07:20:53;;;;;;;0.10;0.10;;;;;;;15.27;73.74;98387.41;7360440;19;20018;-57
2022/12/19 07:23:21;;;;;;;0.10;0.10;;;;;;;15.27;73.75;98382.97;7363389;19;20023;-57
2022/12/19 07:25:46;;;;;;;0.10;0.10;;;;;;;15.25;74.04;98384.88;7357492;19;20014;-58
2022/12/19 07:28:13;;;;;;;0.00;0.00;;;;;;;15.17;73.96;98366.25;7361819;19;20462;-57
2022/12/19 07:30:38;;;;;;;0.00;0.00;;;;;;;15.26;73.88;98369.97;7364442;19;20015;-57
2022/12/19 07:33:03;;;;;;;0.10;0.10;;;;;;;15.27;73.83;98372.47;7365242;19;20010;-57
2022/12/19 07:35:29;;;;;;;0.08;0.08;;;;;;;15.30;74.28;98387.16;7360858;19;20366;-56
2022/12/19 07:38:04;;;;;;;0.10;0.10;;;;;;;15.34;74.04;98371.97;7365904;19;20118;-58
2022/12/19 07:40:29;;;;;;;0.10;0.10;;;;;;;15.35;73.97;98369.22;7356184;19;20006;-57
2022/12/19 07:42:59;;;;;;;0.10;0.10;;;;;;;15.39;73.78;98365.38;7359639;19;21544;-56
2022/12/19 07:45:25;;;;;;;0.10;0.10;;;;;;;15.41;73.99;98381.91;7361291;19;19998;-57
2022/12/19 07:47:50;;;;;;;0.10;0.10;;;;;;;15.45;73.72;98369.31;7363972;19;20027;-57
2022/12/19 07:50:16;;;;;;;0.10;0.10;;;;;;;15.49;73.76;98370.75;7342043;19;20016;-57
2022/12/19 07:52:42;;;;;;;0.10;0.10;;;;;;;15.45;73.67;98356.16;7360116;19;20030;-57
2022/12/19 07:55:08;;;;;;;0.10;0.10;;;;;;;15.50;73.46;98377.69;7360161;19;20656;-57
2022/12/19 07:57:33;;;;;;;0.10;0.10;;;;;;;15.57;73.84;98394.66;7360312;19;20022;-56
2022/12/19 07:59:59;;;;;;;0.00;0.00;;;;;;;15.60;73.55;98404.91;7363837;19;20038;-56
2022/12/19 08:02:24;;;;;;;0.10;0.10;;;;;;;15.57;73.78;98377.09;7363437;19;20010;-58
2022/12/19 08:04:50;;;;;;;0.10;0.10;;;;;;;15.61;73.69;98390.81;7356815;19;20014;-57
2022/12/19 08:07:15;;;;;;;0.05;0.05;;;;;;;15.61;73.88;98393.44;7359809;19;20086;-58
2022/12/19 08:09:40;;;;;;;0.10;0.10;;;;;;;15.64;73.84;98384.50;7348563;19;20020;-57
2022/12/19 08:12:06;;;;;;;0.08;0.08;;;;;;;15.65;73.87;98381.75;7355571;19;20083;-56
2022/12/19 08:14:31;;;;;;;0.10;0.10;;;;;;;15.65;73.29;98384.38;7355425;19;20011;-57
2022/12/19 08:16:57;;;;;;;0.10;0.10;;;;;;;15.64;73.51;98382.72;7365737;19;20018;-58
2022/12/19 08:19:22;;;;;;;0.10;0.10;;;;;;;15.63;73.44;98382.81;7359240;19;20022;-57
2022/12/19 08:21:48;;;;;;;0.10;0.10;;;;;;;15.62;73.76;98381.97;7362049;19;20007;-57
2022/12/19 08:24:13;;;;;;;0.10;0.10;;;;;;;15.61;73.75;98379.44;7356867;19;20030;-55
2022/12/19 08:26:40;;;;;;;0.10;0.10;;;;;;;15.58;73.67;98380.53;7362750;19;20046;-58
2022/12/19 08:29:05;;;;;;;0.10;0.10;;;;;;;15.57;74.04;98378.88;7360649;19;20790;-57
2022/12/19 08:31:31;;;;;;;0.10;0.10;;;;;;;15.57;73.82;98374.44;7359598;19;20014;-58
2022/12/19 08:33:56;;;;;;;0.00;0.00;;;;;;;15.55;73.71;98367.63;7356989;19;20006;-57
2022/12/19 08:36:23;;;;;;;0.10;0.10;;;;;;;15.57;73.61;98381.50;7356609;19;20022;-58
2022/12/19 08:38:48;;;;;;;0.03;0.03;;;;;;;15.58;73.89;98373.47;7361736;19;20014;-57
2022/12/19 08:41:15;;;;;;;0.03;0.03;;;;;;;15.58;73.95;98370.03;7362596;19;20014;-58
2022/12/19 08:43:41;;;;;;;0.08;0.08;;;;;;;15.58;74.08;98364.75;7362516;19;20717;-56
2022/12/19 08:46:08;;;;;;;0.10;0.10;;;;;;;15.59;73.75;98366.44;7365004;19;20014;-57
2022/12/19 08:48:35;;;;;;;0.10;0.10;;;;;;;15.62;73.57;98349.56;7360732;19;20014;-58
2022/12/19 08:51:06;;;;;;;0.10;0.10;;;;;;;15.65;73.65;98352.81;7364169;19;20038;-57
2022/12/19 08:53:33;;;;;;;0.10;0.10;;;;;;;15.65;73.79;98325.66;7348892;19;20021;-58
2022/12/19 08:56:02;;;;;;;0.10;0.10;;;;;;;15.68;73.39;98363.09;7358536;19;20010;-57
2022/12/19 08:58:29;;;;;;;0.10;0.10;;;;;;;15.69;73.51;98351.59;7364275;19;20018;-57
2022/12/19 09:00:59;;;;;;;0.10;0.10;;;;;;;15.71;73.82;98357.59;7361774;19;20026;-58
2022/12/19 09:03:24;;;;;;;0.10;0.10;;;;;;;15.68;73.64;98328.06;7362460;19;20006;-57
2022/12/19 09:06:00;;;;;;;0.10;0.10;;;;;;;15.75;73.28;98330.03;7364319;19;20956;-57
2022/12/19 09:08:27;;;;;;;0.10;0.10;;;;;;;15.75;73.61;98324.78;7361673;19;20514;-58
2022/12/19 09:11:06;;;;;;;0.13;0.13;;;;;;;15.78;73.19;98314.00;7361584;19;20063;-58
2022/12/19 09:13:33;;;;;;;0.10;0.10;;;;;;;15.78;72.95;98318.44;7361500;19;20003;-57
2022/12/19 09:16:13;;;;;;;0.10;0.10;;;;;;;15.83;73.29;98321.53;7362332;19;20534;-57
2022/12/19 09:18:39;;;;;;;0.10;0.10;;;;;;;15.82;73.18;98315.44;7361754;19;20053;-56
2022/12/19 09:21:05;;;;;;;0.10;0.10;;;;;;;15.87;72.75;98330.03;7362603;19;20580;-58
2022/12/19 09:23:30;;;;;;;0.10;0.10;;;;;;;15.78;72.81;98307.91;7359502;19;20006;-57
2022/12/19 09:26:01;;;;;;;0.10;0.10;;;;;;;15.93;73.06;98311.09;7363851;19;20010;-56
2022/12/19 09:28:27;;;;;;;0.10;0.10;;;;;;;15.95;72.83;98320.50;7365983;19;20006;-57
2022/12/19 09:30:57;;;;;;;0.10;0.10;;;;;;;16.02;72.27;98299.81;7372050;19;25417;-58
2022/12/19 09:33:23;;;;;;;0.10;0.10;;;;;;;16.04;72.44;98318.91;7367508;19;20489;-57
2022/12/19 09:35:53;;;;;;;0.08;0.08;;;;;;;16.04;72.33;98297.88;7371230;19;21167;-58
2022/12/19 09:38:19;;;;;;;0.10;0.10;;;;;;;16.06;72.39;98316.97;7367403;19;20856;-58
2022/12/19 09:40:56;;;;;;;0.10;0.10;;;;;;;16.12;71.58;98305.97;7368284;19;20543;-57
2022/12/19 09:43:50;;;;;;;0.08;0.08;;;;;;;16.09;71.93;98301.78;7366359;19;22346;-57
2022/12/19 09:46:17;;;;;;;0.10;0.10;;;;;;;16.15;72.03;98310.97;7263610;19;2004483;-57
2022/12/19 09:48:52;;;;;;;0.10;0.10;;;;;;;16.17;71.50;98298.53;7370998;19;20018;-58
2022/12/19 09:51:31;;;;;;;0.10;0.10;;;;;;;16.21;71.51;98294.63;7367860;19;20014;-57
2022/12/19 09:54:14;;;;;;;0.10;0.10;;;;;;;16.24;71.29;98297.03;7365623;19;20027;-58
2022/12/19 09:56:42;;;;;;;0.10;0.10;;;;;;;16.26;71.13;98303.00;7368253;19;20848;-57
2022/12/19 09:59:23;;;;;;;0.10;0.10;;;;;;;16.29;71.31;98281.66;7365466;19;20737;-58
2022/12/19 10:01:56;;;;;;;0.00;0.00;;;;;;;16.30;71.03;98301.78;7369090;19;20019;-58
2022/12/19 10:04:25;;;;;;;0.10;0.10;;;;;;;16.32;70.42;98283.19;7367721;19;20865;-57
2022/12/19 10:06:51;;;;;;;0.10;0.10;;;;;;;16.32;70.80;98296.38;7367509;19;20097;-57
2022/12/19 10:09:20;;;;;;;0.03;0.03;;;;;;;16.33;70.40;98291.00;7368991;19;20098;-57
2022/12/19 10:12:18;;;;;;;0.10;0.10;;;;;;;16.36;70.49;98274.06;7367649;19;20013;-58
2022/12/19 10:14:46;;;;;;;0.10;0.10;;;;;;;16.30;70.09;98288.59;7264291;19;2004382;-58
2022/12/19 10:17:17;;;;;;;0.00;0.00;;;;;;;16.28;70.51;98295.81;7367665;19;20032;-57
2022/12/19 10:20:27;;;;;;;0.10;0.10;;;;;;;16.25;70.73;98293.41;7366900;19;20575;-57
2022/12/19 10:23:44;;;;;;;0.10;0.10;;;;;;;16.19;70.78;98277.31;7265047;19;2004168;-58
2022/12/19 10:26:22;;;;;;;0.10;0.10;;;;;;;16.14;70.72;98276.88;7261934;19;2004231;-58
2022/12/19 10:28:47;;;;;;;;;;;;;;;16.11;70.93;98272.69;7367248;19;20006;-58
2022/12/19 10:31:40;;;;;;;0.10;0.10;;;;;;;16.06;71.07;98274.88;7366046;19;22183;-57
2022/12/19 10:34:33;;;;;;;0.10;0.10;;;;;;;16.00;71.17;98280.66;7262072;19;2004743;-58
2022/12/19 10:37:08;;;;;;;0.10;0.10;;;;;;;15.93;71.32;98276.88;7366152;19;20038;-57
2022/12/19 10:40:02;;;;;;;0.10;0.10;;;;;;;15.86;72.41;98289.69;7361422;19;20120;-57
2022/12/19 10:42:53;;;;;;;0.10;0.10;;;;;;;15.78;71.96;98287.69;7265557;19;2004544;-58
2022/12/19 10:45:21;;;;;;;0.00;0.00;;;;;;;15.64;73.34;98279.28;7264280;19;2004295;-57
2022/12/19 10:47:55;;;;;;;0.00;0.00;;;;;;;15.53;73.43;98273.06;7360885;19;20006;-58
2022/12/19 10:50:24;;;;;;;0.10;0.10;;;;;;;15.42;73.86;98259.13;7364414;19;20042;-57
2022/12/19 10:53:02;;;;;;;0.00;0.00;;;;;;;15.33;73.38;98265.97;7357981;19;20019;-58
2022/12/19 10:55:41;;;;;;;0.05;0.05;;;;;;;15.22;73.93;98253.69;7360272;19;20017;-58
2022/12/19 10:58:34;;;;;;;0.10;0.10;;;;;;;15.15;73.46;98247.22;7365004;19;20013;-58
2022/12/19 11:01:12;;;;;;;0.00;0.00;;;;;;;15.06;74.07;98245.38;7251343;19;2004612;-56
2022/12/19 11:03:40;;;;;;;0.00;0.00;;;;;;;14.95;75.09;98240.13;7358950;19;20017;-58
2022/12/19 11:06:46;;;;;;;0.10;0.10;;;;;;;14.96;73.97;98247.06;7359381;19;20010;-57
2022/12/19 11:09:29;;;;;;;0.10;0.10;;;;;;;14.91;75.17;98243.97;7264932;19;2004221;-58
2022/12/19 11:11:59;;;;;;;0.00;0.00;;;;;;;14.85;75.75;98239.19;7367203;19;20082;-57
2022/12/19 11:14:30;;;;;;;0.10;0.10;;;;;;;14.83;75.67;98246.34;7364615;19;20015;-57
2022/12/19 11:16:55;;;;;;;0.05;0.05;;;;;;;14.78;75.85;98244.91;7365438;19;20011;-58
2022/12/19 11:19:25;;;;;;;0.05;0.05;;;;;;;14.78;75.69;98244.09;7362471;19;20457;-58
2022/12/19 11:21:50;;;;;;;0.10;0.10;;;;;;;14.75;76.19;98233.81;7362480;19;20006;-57
2022/12/19 11:24:24;;;;;;;0.10;0.10;;;;;;;14.75;75.60;98218.03;7361377;19;23758;-57
2022/12/19 11:26:51;;;;;;;0.10;0.10;;;;;;;14.70;76.21;98223.69;7365993;19;20735;-57
2022/12/19 11:29:17;;;;;;;;;;;;;;;14.73;75.19;98225.22;7367005;19;20464;-57
2022/12/19 11:31:44;;;;;;;0.10;0.10;;;;;;;14.68;76.58;98222.13;7365937;19;19919;-57
2022/12/19 11:34:22;;;;;;;0.03;0.03;;;;;;;14.68;75.89;98217.72;7361963;19;20438;-58
2022/12/19 11:37:02;;;;;;;0.08;0.08;;;;;;;14.67;76.40;98205.53;7366164;19;20007;-58
2022/12/19 11:39:40;;;;;;;0.10;0.10;;;;;;;14.64;76.83;98200.50;7365077;19;20725;-57
2022/12/19 11:42:29;;;;;;;0.08;0.08;;;;;;;14.56;76.03;98179.28;7361158;19;20010;-57
2022/12/19 11:45:38;;;;;;;0.10;0.10;;;;;;;14.65;76.15;98199.59;7366870;19;20014;-58
2022/12/19 11:48:18;;;;;;;0.10;0.10;;;;;;;14.63;76.46;98188.34;7261501;19;2004363;-57
2022/12/19 11:51:00;;;;;;;0.10;0.10;;;;;;;14.61;76.99;98182.41;7361959;19;20006;-56
2022/12/19 11:53:33;;;;;;;0.00;0.00;;;;;;;14.61;76.87;98174.50;7365017;19;20056;-57